createdAt,value
2018-09-05T00:00:58.415Z,40.20
2018-09-05T00:01:58.423Z,39.60
2018-09-05T00:02:58.433Z,38.60
2018-09-05T00:03:58.430Z,39.50
2018-09-05T00:04:58.457Z,38.70
2018-09-05T00:05:58.431Z,40.90
2018-09-05T00:06:58.420Z,38.40
2018-09-05T00:07:58.455Z,38.80
2018-09-05T00:08:58.456Z,38.90
2018-09-05T00:09:58.437Z,39.50
2018-09-05T00:10:58.447Z,38.20
2018-09-05T00:11:58.437Z,39.30
2018-09-05T00:12:58.453Z,37.40
2018-09-05T00:13:58.463Z,37.30
2018-09-05T00:14:59.135Z,37.50
2018-09-05T00:15:58.445Z,38.00
2018-09-05T00:16:58.472Z,39.10
2018-09-05T00:17:58.455Z,37.30
2018-09-05T00:18:58.466Z,38.20
2018-09-05T00:19:58.451Z,36.80
2018-09-05T00:20:58.474Z,38.10
2018-09-05T00:21:58.474Z,37.30
2018-09-05T00:22:58.460Z,36.90
2018-09-05T00:23:58.467Z,36.80
2018-09-05T00:24:58.471Z,38.00
2018-09-05T00:25:58.483Z,37.20
2018-09-05T00:26:58.479Z,37.60
2018-09-05T00:27:59.135Z,37.70
2018-09-05T00:28:58.506Z,36.20
2018-09-05T00:29:58.496Z,37.60
2018-09-05T00:30:58.495Z,38.90
2018-09-05T00:31:58.490Z,37.90
2018-09-05T00:32:58.504Z,37.60
2018-09-05T00:33:58.500Z,37.40
2018-09-05T00:34:58.500Z,36.20
2018-09-05T00:35:58.505Z,38.10
2018-09-05T00:36:58.520Z,38.10
2018-09-05T00:37:58.519Z,39.00
2018-09-05T00:38:58.495Z,37.30
2018-09-05T00:39:58.504Z,36.10
2018-09-05T00:40:58.602Z,35.70
2018-09-05T00:41:58.561Z,36.90
2018-09-05T00:42:58.511Z,35.40
2018-09-05T00:43:58.532Z,34.50
2018-09-05T00:44:58.514Z,33.50
2018-09-05T00:45:58.528Z,34.90
2018-09-05T00:46:58.519Z,34.10
2018-09-05T00:47:58.523Z,35.50
2018-09-05T00:48:58.534Z,34.90
2018-09-05T00:49:58.528Z,34.90
2018-09-05T00:50:58.541Z,34.30
2018-09-05T00:51:58.569Z,34.70
2018-09-05T00:52:58.567Z,34.00
2018-09-05T00:53:58.565Z,35.70
2018-09-05T00:54:58.547Z,35.70
2018-09-05T00:55:58.560Z,34.80
2018-09-05T00:56:58.555Z,35.50
2018-09-05T00:57:58.556Z,37.60
2018-09-05T00:58:58.650Z,36.90
2018-09-05T00:59:58.557Z,34.70
2018-09-05T01:00:58.588Z,37.30
2018-09-05T01:01:58.622Z,36.50
2018-09-05T01:02:58.570Z,36.20
2018-09-05T01:03:58.581Z,36.40
2018-09-05T01:04:58.580Z,35.80
2018-09-05T01:05:58.565Z,36.70
2018-09-05T01:06:58.578Z,37.80
2018-09-05T01:07:58.568Z,37.20
2018-09-05T01:08:58.568Z,36.20
2018-09-05T01:09:58.565Z,37.10
2018-09-05T01:10:58.635Z,36.70
2018-09-05T01:11:58.580Z,35.90
2018-09-05T01:12:58.582Z,36.10
2018-09-05T01:13:58.671Z,38.00
2018-09-05T01:14:58.610Z,38.00
2018-09-05T01:15:58.610Z,37.90
2018-09-05T01:16:58.608Z,35.80
2018-09-05T01:17:58.624Z,36.60
2018-09-05T01:18:58.599Z,36.80
2018-09-05T01:19:58.603Z,35.90
2018-09-05T01:20:58.607Z,36.10
2018-09-05T01:21:59.167Z,34.70
2018-09-05T01:22:58.606Z,34.10
2018-09-05T01:23:58.612Z,33.10
2018-09-05T01:24:58.642Z,33.50
2018-09-05T01:25:58.643Z,34.70
2018-09-05T01:26:58.611Z,33.40
2018-09-05T01:27:58.618Z,33.40
2018-09-05T01:28:58.620Z,33.30
2018-09-05T01:29:58.626Z,33.30
2018-09-05T01:30:58.632Z,33.90
2018-09-05T01:31:58.629Z,33.30
2018-09-05T01:32:58.652Z,33.90
2018-09-05T01:33:58.680Z,33.30
2018-09-05T01:34:58.790Z,32.30
2018-09-05T01:35:58.644Z,33.60
2018-09-05T01:36:58.668Z,33.80
2018-09-05T01:37:58.649Z,33.50
2018-09-05T01:38:58.656Z,33.20
2018-09-05T01:39:58.670Z,34.20
2018-09-05T01:40:58.688Z,34.20
2018-09-05T01:41:58.656Z,34.60
2018-09-05T01:42:58.663Z,34.90
2018-09-05T01:43:58.664Z,35.40
2018-09-05T01:44:58.656Z,34.00
2018-09-05T01:45:58.688Z,34.20
2018-09-05T01:46:58.668Z,34.30
2018-09-05T01:47:58.677Z,34.60
2018-09-05T01:48:58.680Z,35.00
2018-09-05T01:49:58.686Z,34.60
2018-09-05T01:50:58.676Z,34.70
2018-09-05T01:51:58.690Z,33.90
2018-09-05T01:52:58.794Z,35.40
2018-09-05T01:53:58.699Z,35.10
2018-09-05T01:54:58.677Z,35.70
2018-09-05T01:55:58.695Z,35.40
2018-09-05T01:56:58.683Z,36.20
2018-09-05T01:57:58.688Z,35.50
2018-09-05T01:58:58.694Z,35.40
2018-09-05T01:59:58.715Z,36.20
2018-09-05T02:00:58.714Z,35.80
2018-09-05T02:01:58.699Z,35.50
2018-09-05T02:02:58.717Z,35.40
2018-09-05T02:03:58.709Z,34.40
2018-09-05T02:04:58.706Z,36.30
2018-09-05T02:05:58.796Z,37.10
2018-09-05T02:06:59.174Z,35.40
2018-09-05T02:07:58.713Z,36.10
2018-09-05T02:08:58.725Z,36.40
2018-09-05T02:09:58.760Z,34.60
2018-09-05T02:10:58.715Z,34.80
2018-09-05T02:11:58.723Z,36.00
2018-09-05T02:12:58.737Z,34.50
2018-09-05T02:13:58.734Z,35.50
2018-09-05T02:14:58.757Z,35.20
2018-09-05T02:15:58.750Z,35.70
2018-09-05T02:16:58.746Z,35.60
2018-09-05T02:17:58.735Z,36.50
2018-09-05T02:26:09.599Z,36.00
2018-09-05T02:27:08.615Z,36.60
2018-09-05T02:28:06.601Z,36.80
2018-09-05T02:29:04.099Z,36.30
2018-09-05T02:30:04.102Z,37.30
2018-09-05T02:31:04.102Z,37.10
2018-09-05T02:32:03.334Z,36.70
2018-09-05T02:33:03.391Z,36.10
2018-09-05T02:34:03.308Z,38.00
2018-09-05T02:35:03.312Z,36.40
2018-09-05T02:36:03.330Z,36.10
2018-09-05T02:37:03.314Z,37.00
2018-09-05T02:38:03.325Z,37.60
2018-09-05T02:39:03.338Z,38.30
2018-09-05T02:40:03.341Z,37.70
2018-09-05T02:41:03.332Z,37.20
2018-09-05T02:42:03.337Z,37.70
2018-09-05T02:43:03.326Z,37.80
2018-09-05T02:44:04.099Z,37.40
2018-09-05T02:45:03.341Z,38.10
2018-09-05T02:46:03.354Z,38.70
2018-09-05T02:47:04.098Z,38.00
2018-09-05T02:48:03.450Z,38.10
2018-09-05T02:49:03.345Z,38.50
2018-09-05T02:50:03.401Z,37.50
2018-09-05T02:51:03.358Z,38.00
2018-09-05T02:52:03.362Z,36.60
2018-09-05T02:53:03.414Z,38.50
2018-09-05T02:54:03.356Z,37.30
2018-09-05T02:55:03.381Z,38.90
2018-09-05T02:56:03.375Z,38.20
2018-09-05T02:57:03.364Z,36.90
2018-09-05T02:58:03.403Z,37.70
2018-09-05T02:59:03.367Z,37.90
2018-09-05T03:00:03.373Z,36.70
2018-09-05T03:01:03.436Z,38.70
2018-09-05T03:02:03.390Z,38.20
2018-09-05T03:03:03.384Z,37.60
2018-09-05T03:04:03.380Z,38.00
2018-09-05T03:05:03.384Z,39.10
2018-09-05T03:06:03.400Z,38.80
2018-09-05T03:07:03.383Z,38.50
2018-09-05T03:08:03.392Z,38.20
2018-09-05T03:09:03.394Z,36.80
2018-09-05T03:10:03.397Z,37.80
2018-09-05T03:11:03.394Z,37.40
2018-09-05T03:12:03.402Z,37.10
2018-09-05T03:13:03.407Z,37.20
2018-09-05T03:14:03.406Z,39.30
2018-09-05T03:15:03.399Z,38.10
2018-09-05T03:16:03.414Z,37.80
2018-09-05T03:17:03.413Z,37.00
2018-09-05T03:18:03.414Z,35.60
2018-09-05T03:19:04.109Z,37.00
2018-09-05T03:20:03.421Z,37.00
2018-09-05T03:21:03.418Z,38.40
2018-09-05T03:22:03.421Z,38.60
2018-09-05T03:23:03.434Z,38.40
2018-09-05T03:24:03.437Z,38.60
2018-09-05T03:25:03.420Z,38.50
2018-09-05T03:26:03.433Z,37.40
2018-09-05T03:27:03.437Z,38.40
2018-09-05T03:28:03.478Z,38.00
2018-09-05T03:29:03.430Z,38.80
2018-09-05T03:30:03.459Z,38.20
2018-09-05T03:31:03.446Z,37.80
2018-09-05T03:32:03.474Z,37.60
2018-09-05T03:33:03.486Z,39.20
2018-09-05T03:34:03.447Z,37.70
2018-09-05T03:35:03.453Z,38.30
2018-09-05T03:36:03.458Z,39.20
2018-09-05T03:37:03.461Z,37.70
2018-09-05T03:38:03.554Z,38.30
2018-09-05T03:39:03.459Z,38.90
2018-09-05T03:40:03.460Z,37.10
2018-09-05T03:41:03.468Z,38.60
2018-09-05T03:42:03.452Z,38.10
2018-09-05T03:43:03.473Z,39.60
2018-09-05T03:44:03.506Z,38.60
2018-09-05T03:45:03.640Z,38.80
2018-09-05T03:46:03.474Z,39.50
2018-09-05T03:47:03.502Z,38.50
2018-09-05T03:48:03.479Z,39.50
2018-09-05T03:49:03.499Z,39.30
2018-09-05T03:50:03.479Z,39.30
2018-09-05T03:51:03.480Z,40.50
2018-09-05T03:52:03.491Z,39.00
2018-09-05T03:53:03.488Z,39.70
2018-09-05T03:54:03.483Z,37.20
2018-09-05T03:55:03.670Z,38.20
2018-09-05T03:56:03.515Z,40.00
2018-09-05T03:57:03.494Z,39.50
2018-09-05T03:58:03.528Z,40.30
2018-09-05T03:59:03.530Z,39.10
2018-09-05T04:00:03.516Z,41.10
2018-09-05T04:01:03.509Z,40.80
2018-09-05T04:02:03.517Z,40.60
2018-09-05T04:03:03.506Z,38.60
2018-09-05T04:04:03.521Z,38.80
2018-09-05T04:05:03.549Z,40.50
2018-09-05T04:06:03.516Z,39.30
2018-09-05T04:07:03.509Z,41.20
2018-09-05T04:08:03.605Z,39.70
2018-09-05T04:09:03.515Z,41.20
2018-09-05T04:10:03.530Z,40.50
2018-09-05T04:11:03.522Z,41.10
2018-09-05T04:12:03.532Z,40.70
2018-09-05T04:13:03.622Z,40.80
2018-09-05T04:14:03.547Z,40.60
2018-09-05T04:15:03.537Z,42.20
2018-09-05T04:16:03.543Z,41.70
2018-09-05T04:17:03.554Z,39.60
2018-09-05T04:18:03.540Z,40.60
2018-09-05T04:19:03.541Z,40.80
2018-09-05T04:20:03.553Z,41.60
2018-09-05T04:21:03.540Z,41.70
2018-09-05T04:22:03.599Z,42.20
2018-09-05T04:23:03.583Z,42.10
2018-09-05T04:24:03.595Z,41.90
2018-09-05T04:25:03.560Z,44.30
2018-09-05T04:26:04.139Z,43.70
2018-09-05T04:27:03.566Z,44.50
2018-09-05T04:28:03.598Z,44.20
2018-09-05T04:29:03.569Z,45.00
2018-09-05T04:30:03.595Z,45.20
2018-09-05T04:31:03.570Z,45.70
2018-09-05T04:32:03.590Z,47.40
2018-09-05T04:33:03.569Z,46.10
2018-09-05T04:34:03.572Z,45.90
2018-09-05T04:35:03.615Z,47.20
2018-09-05T04:36:03.582Z,46.40
2018-09-05T04:37:03.594Z,47.10
2018-09-05T04:38:03.588Z,49.80
2018-09-05T04:39:03.638Z,48.30
2018-09-05T04:40:03.592Z,49.50
2018-09-05T04:41:03.595Z,49.90
2018-09-05T04:42:03.588Z,50.70
2018-09-05T04:43:03.617Z,51.30
2018-09-05T04:44:03.589Z,50.30
2018-09-05T04:45:03.634Z,51.00
2018-09-05T04:46:03.617Z,50.00
2018-09-05T04:47:03.616Z,50.90
2018-09-05T04:48:03.622Z,50.30
2018-09-05T04:49:04.150Z,50.50
2018-09-05T04:50:03.615Z,50.30
2018-09-05T04:51:03.607Z,49.70
2018-09-05T04:52:03.632Z,51.50
2018-09-05T04:53:03.605Z,50.50
2018-09-05T04:54:03.615Z,49.90
2018-09-05T04:55:03.617Z,52.50
2018-09-05T04:56:03.636Z,50.20
2018-09-05T04:57:03.628Z,51.00
2018-09-05T04:58:03.622Z,51.90
2018-09-05T04:59:03.635Z,49.00
2018-09-05T05:00:03.686Z,50.00
2018-09-05T05:01:03.631Z,49.80
2018-09-05T05:02:03.639Z,48.10
2018-09-05T05:03:03.666Z,49.70
2018-09-05T05:04:03.658Z,49.20
2018-09-05T05:05:03.685Z,48.40
2018-09-05T05:06:03.655Z,49.20
2018-09-05T05:07:03.649Z,49.60
2018-09-05T05:08:03.670Z,49.00
2018-09-05T05:09:03.644Z,48.20
2018-09-05T05:10:03.664Z,49.00
2018-09-05T05:11:03.660Z,49.60
2018-09-05T05:12:03.656Z,47.00
2018-09-05T05:13:03.647Z,48.30
2018-09-05T05:14:03.659Z,46.80
2018-09-05T05:15:03.704Z,47.40
2018-09-05T05:16:03.672Z,49.10
2018-09-05T05:17:03.669Z,46.60
2018-09-05T05:18:03.677Z,45.90
2018-09-05T05:19:03.676Z,45.90
2018-09-05T05:20:03.665Z,45.60
2018-09-05T05:21:03.697Z,44.70
2018-09-05T05:22:03.698Z,44.40
2018-09-05T05:23:03.700Z,42.90
2018-09-05T05:24:03.687Z,42.90
2018-09-05T05:25:03.756Z,43.70
2018-09-05T05:26:03.688Z,41.50
2018-09-05T05:27:03.700Z,40.60
2018-09-05T05:28:03.695Z,39.60
2018-09-05T05:29:03.711Z,39.90
2018-09-05T05:30:03.751Z,38.40
2018-09-05T05:31:03.713Z,41.00
2018-09-05T05:32:03.741Z,39.30
2018-09-05T05:33:03.697Z,39.10
2018-09-05T05:34:03.754Z,37.50
2018-09-05T05:35:03.754Z,38.50
2018-09-05T05:36:03.715Z,37.90
2018-09-05T05:37:03.721Z,37.20
2018-09-05T05:38:03.743Z,37.80
2018-09-05T05:39:03.707Z,38.00
2018-09-05T05:40:03.761Z,37.50
2018-09-05T05:41:03.722Z,37.30
2018-09-05T05:42:03.724Z,36.30
2018-09-05T05:43:03.735Z,36.50
2018-09-05T05:44:03.751Z,35.50
2018-09-05T05:45:03.727Z,35.70
2018-09-05T05:46:03.788Z,35.50
2018-09-05T05:47:03.763Z,37.10
2018-09-05T05:48:03.738Z,34.50
2018-09-05T05:49:03.767Z,35.30
2018-09-05T05:50:04.677Z,33.30
2018-09-05T05:51:03.751Z,32.30
2018-09-05T05:52:03.751Z,31.30
2018-09-05T05:53:03.738Z,31.30
2018-09-05T05:54:03.748Z,31.20
2018-09-05T05:55:03.951Z,32.20
2018-09-05T05:56:03.759Z,30.90
2018-09-05T05:57:03.758Z,30.70
2018-09-05T05:58:03.755Z,31.00
2018-09-05T05:59:03.758Z,30.00
2018-09-05T06:00:03.761Z,29.30
2018-09-05T06:01:03.854Z,29.90
2018-09-05T06:02:03.792Z,31.20
2018-09-05T06:03:03.771Z,30.00
2018-09-05T06:04:03.801Z,29.90
2018-09-05T06:05:03.813Z,29.00
2018-09-05T06:06:03.843Z,29.90
2018-09-05T06:07:03.805Z,29.20
2018-09-05T06:08:03.789Z,29.60
2018-09-05T06:09:03.790Z,28.60
2018-09-05T06:10:03.827Z,29.10
2018-09-05T06:11:03.833Z,28.50
2018-09-05T06:12:03.800Z,28.50
2018-09-05T06:13:03.803Z,28.80
2018-09-05T06:14:04.688Z,28.70
2018-09-05T06:15:03.810Z,27.40
2018-09-05T06:16:04.791Z,28.30
2018-09-05T06:17:03.842Z,27.10
2018-09-05T06:18:03.923Z,25.90
2018-09-05T06:19:03.828Z,26.80
2018-09-05T06:20:03.936Z,28.00
2018-09-05T06:21:03.924Z,26.10
2018-09-05T06:22:03.862Z,27.00
2018-09-05T06:23:03.884Z,26.80
2018-09-05T06:24:03.905Z,27.10
2018-09-05T06:25:03.851Z,26.40
2018-09-05T06:26:03.865Z,24.80
2018-09-05T06:27:03.948Z,25.00
2018-09-05T06:28:03.897Z,24.20
2018-09-05T06:29:03.859Z,25.00
2018-09-05T06:30:03.991Z,25.00
2018-09-05T06:31:04.035Z,24.20
2018-09-05T06:32:03.984Z,23.80
2018-09-05T06:33:03.880Z,24.80
2018-09-05T06:34:03.906Z,24.70
2018-09-05T06:35:03.890Z,24.20
2018-09-05T06:36:03.903Z,23.40
2018-09-05T06:37:03.897Z,23.30
2018-09-05T06:38:03.943Z,23.30
2018-09-05T06:39:03.986Z,22.90
2018-09-05T06:40:03.928Z,22.20
2018-09-05T06:41:03.938Z,22.80
2018-09-05T06:42:03.940Z,22.20
2018-09-05T06:43:03.942Z,21.80
2018-09-05T06:44:04.002Z,21.40
2018-09-05T06:45:03.989Z,21.50
2018-09-05T06:46:04.011Z,21.50
2018-09-05T06:47:03.954Z,21.30
2018-09-05T06:48:04.034Z,21.70
2018-09-05T06:49:03.975Z,21.20
2018-09-05T06:50:04.116Z,22.70
2018-09-05T06:51:04.067Z,21.40
2018-09-05T06:52:04.018Z,21.50
2018-09-05T06:53:04.011Z,21.70
2018-09-05T06:54:04.075Z,24.90
2018-09-05T06:55:04.707Z,22.20
2018-09-05T06:56:04.059Z,21.30
2018-09-05T06:57:04.042Z,21.00
2018-09-05T06:58:04.086Z,20.30
2018-09-05T06:59:04.075Z,20.30
2018-09-05T07:00:04.128Z,19.70
2018-09-05T07:01:04.392Z,20.80
2018-09-05T07:02:04.162Z,20.40
2018-09-05T07:03:04.156Z,20.70
2018-09-05T07:04:04.149Z,19.30
2018-09-05T07:05:04.713Z,19.60
2018-09-05T07:06:04.148Z,19.30
2018-09-05T07:07:04.227Z,19.10
2018-09-05T07:08:04.227Z,20.20
2018-09-05T07:09:04.135Z,19.50
2018-09-05T07:10:04.166Z,18.30
2018-09-05T07:11:04.147Z,18.00
2018-09-05T07:12:04.188Z,18.50
2018-09-05T07:13:04.192Z,19.20
2018-09-05T07:14:04.188Z,18.00
2018-09-05T07:15:04.183Z,19.00
2018-09-05T07:16:04.202Z,18.20
2018-09-05T07:17:04.210Z,18.10
2018-09-05T07:18:04.520Z,17.40
2018-09-05T07:19:04.326Z,17.90
2018-09-05T07:20:04.327Z,18.40
2018-09-05T07:21:07.175Z,18.00
2018-09-05T07:22:04.302Z,17.80
2018-09-05T07:23:04.252Z,18.10
2018-09-05T07:24:04.294Z,18.70
2018-09-05T07:25:04.382Z,18.00
2018-09-05T07:26:04.352Z,18.60
2018-09-05T07:27:04.306Z,17.10
2018-09-05T07:28:04.311Z,18.20
2018-09-05T07:29:04.364Z,17.90
2018-09-05T07:30:04.368Z,17.90
2018-09-05T07:32:58.465Z,17.00
2018-09-05T07:33:37.820Z,16.60
2018-09-05T07:34:36.637Z,17.90
2018-09-05T07:35:36.716Z,18.80
2018-09-05T07:36:36.617Z,16.90
2018-09-05T07:37:36.629Z,17.30
2018-09-05T07:38:37.390Z,17.50
2018-09-05T07:39:37.417Z,17.80
2018-09-05T07:40:36.780Z,17.50
2018-09-05T07:41:36.765Z,17.70
2018-09-05T07:42:36.719Z,18.00
2018-09-05T07:43:36.751Z,18.50
2018-09-05T07:44:36.728Z,17.20
2018-09-05T07:45:36.695Z,17.60
2018-09-05T07:46:37.405Z,17.80
2018-09-05T07:47:36.788Z,17.70
2018-09-05T07:48:36.898Z,17.80
2018-09-05T07:49:36.796Z,18.60
2018-09-05T07:50:36.812Z,17.90
2018-09-05T07:51:36.806Z,19.00
2018-09-05T07:52:36.849Z,18.50
2018-09-05T07:53:36.903Z,18.80
2018-09-05T07:54:36.828Z,18.60
2018-09-05T07:55:37.332Z,18.10
2018-09-05T07:56:36.995Z,17.40
2018-09-05T07:57:36.972Z,18.30
2018-09-05T07:58:36.879Z,18.10
2018-09-05T07:59:37.160Z,17.70
2018-09-05T08:00:36.902Z,18.60
2018-09-05T08:01:37.033Z,18.00
2018-09-05T08:02:37.169Z,17.20
2018-09-05T08:03:36.932Z,18.00
2018-09-05T08:04:36.908Z,18.10
2018-09-05T08:05:37.408Z,17.40
2018-09-05T08:06:36.995Z,17.00
2018-09-05T08:07:37.017Z,17.70
2018-09-05T08:08:37.020Z,17.40
2018-09-05T08:09:36.992Z,16.80
2018-09-05T08:10:37.183Z,17.10
2018-09-05T08:11:37.038Z,16.40
2018-09-05T08:12:37.033Z,17.60
2018-09-05T08:13:37.022Z,17.80
2018-09-05T08:14:37.073Z,17.90
2018-09-05T08:15:37.050Z,16.90
2018-09-05T08:16:37.100Z,18.00
2018-09-05T08:17:37.229Z,17.80
2018-09-05T08:18:37.424Z,18.30
2018-09-05T08:19:37.202Z,18.40
2018-09-05T08:21:37.146Z,18.60
2018-09-05T08:22:37.944Z,17.90
2018-09-05T08:23:37.666Z,18.30
2018-09-05T08:24:37.375Z,18.10
2018-09-05T08:25:37.249Z,18.10
2018-09-05T08:26:37.246Z,18.20
2018-09-05T08:27:37.255Z,18.60
2018-09-05T08:28:37.242Z,17.20
2018-09-05T08:29:37.262Z,16.20
2018-09-05T08:30:37.263Z,16.10
2018-09-05T08:31:37.287Z,18.20
2018-09-05T08:32:37.416Z,17.40
2018-09-05T08:33:37.320Z,17.20
2018-09-05T08:34:37.387Z,17.90
2018-09-05T08:35:37.534Z,19.20
2018-09-05T08:36:37.636Z,18.50
2018-09-05T08:37:38.120Z,18.50
2018-09-05T08:38:37.390Z,18.20
2018-09-05T08:39:37.359Z,18.50
2018-09-05T08:40:37.414Z,17.80
2018-09-05T08:41:37.401Z,17.90
2018-09-05T08:42:37.447Z,18.60
2018-09-05T08:43:37.624Z,17.30
2018-09-05T08:44:37.542Z,17.60
2018-09-05T08:45:37.803Z,19.60
2018-09-05T08:46:37.499Z,17.90
2018-09-05T08:47:37.592Z,17.60
2018-09-05T08:48:37.940Z,17.70
2018-09-05T08:49:37.560Z,16.80
2018-09-05T08:50:37.537Z,16.80
2018-09-05T08:51:37.566Z,16.40
2018-09-05T08:52:37.644Z,15.50
2018-09-05T08:53:37.610Z,16.20
2018-09-05T08:54:37.578Z,15.40
2018-09-05T08:55:37.654Z,14.40
2018-09-05T08:56:37.643Z,15.10
2018-09-05T08:57:37.742Z,15.20
2018-09-05T08:58:37.749Z,16.40
2018-09-05T08:59:37.712Z,15.80
2018-09-05T09:00:37.730Z,15.20
2018-09-05T09:01:37.709Z,15.50
2018-09-05T09:02:37.954Z,15.30
2018-09-05T09:03:37.758Z,14.60
2018-09-05T09:04:37.793Z,13.60
2018-09-05T09:05:37.778Z,13.70
2018-09-05T09:06:37.831Z,13.60
2018-09-05T09:07:37.788Z,13.00
2018-09-05T09:08:37.859Z,12.40
2018-09-05T09:09:38.451Z,13.50
2018-09-05T09:10:37.841Z,13.10
2018-09-05T09:11:37.921Z,13.20
2018-09-05T09:12:38.472Z,14.00
2018-09-05T09:13:38.032Z,13.80
2018-09-05T09:14:37.991Z,13.30
2018-09-05T09:15:37.948Z,14.30
2018-09-05T09:16:37.946Z,12.30
2018-09-05T09:17:37.964Z,12.60
2018-09-05T09:18:37.993Z,13.20
2018-09-05T09:19:38.037Z,12.90
2018-09-05T09:20:38.078Z,13.40
2018-09-05T09:21:38.079Z,14.40
2018-09-05T09:22:38.965Z,13.30
2018-09-05T09:23:38.090Z,12.80
2018-09-05T09:24:38.184Z,13.70
2018-09-05T09:25:38.114Z,14.10
2018-09-05T09:26:38.103Z,13.60
2018-09-05T09:27:38.205Z,12.90
2018-09-05T09:28:38.224Z,11.20
2018-09-05T09:29:38.184Z,11.40
2018-09-05T09:30:38.242Z,11.10
2018-09-05T09:31:38.261Z,11.20
2018-09-05T09:32:38.246Z,11.50
2018-09-05T09:33:38.248Z,10.50
2018-09-05T09:34:38.273Z,11.00
2018-09-05T09:35:38.367Z,10.70
2018-09-05T09:36:38.281Z,11.20
2018-09-05T09:37:38.301Z,11.40
2018-09-05T09:38:38.322Z,10.40
2018-09-05T09:39:38.388Z,10.60
2018-09-05T09:40:38.492Z,10.80
2018-09-05T09:41:38.430Z,10.80
2018-09-05T09:42:38.429Z,11.20
2018-09-05T09:43:38.564Z,11.40
2018-09-05T09:44:38.511Z,10.90
2018-09-05T09:45:38.492Z,11.00
2018-09-05T09:46:38.505Z,10.60
2018-09-05T09:47:38.474Z,10.10
2018-09-05T09:48:38.558Z,11.20
2018-09-05T09:49:38.558Z,10.10
2018-09-05T09:50:38.711Z,9.90
2018-09-05T09:51:38.875Z,9.80
2018-09-05T09:52:38.617Z,10.10
2018-09-05T09:53:38.644Z,10.00
2018-09-05T09:54:38.631Z,9.60
2018-09-05T09:55:38.659Z,10.30
2018-09-05T09:56:39.896Z,10.00
2018-09-05T09:57:38.731Z,10.50
2018-09-05T09:58:39.436Z,10.30
2018-09-05T09:59:39.741Z,10.60
2018-09-05T10:00:39.106Z,12.40
2018-09-05T10:01:38.770Z,12.50
2018-09-05T10:02:38.798Z,13.40
2018-09-05T10:03:38.985Z,12.40
2018-09-05T10:04:38.929Z,11.80
2018-09-05T10:05:38.907Z,11.50
2018-09-05T10:06:38.884Z,10.50
2018-09-05T10:07:38.883Z,10.00
2018-09-05T10:08:38.917Z,10.10
2018-09-05T10:09:38.951Z,9.60
2018-09-05T10:10:39.149Z,9.80
2018-09-05T10:11:39.028Z,9.50
2018-09-05T10:12:39.008Z,9.70
2018-09-05T10:13:39.006Z,9.50
2018-09-05T10:14:38.989Z,10.70
2018-09-05T10:15:39.053Z,9.50
2018-09-05T10:16:41.683Z,9.50
2018-09-05T10:17:39.129Z,14.40
2018-09-05T10:18:39.090Z,10.00
2018-09-05T10:19:39.128Z,10.30
2018-09-05T10:20:39.163Z,21.00
2018-09-05T10:21:39.192Z,12.20
2018-09-05T10:22:39.174Z,11.10
2018-09-05T10:23:39.203Z,10.60
2018-09-05T10:24:39.215Z,10.40
2018-09-05T10:25:39.265Z,103.50
2018-09-05T10:26:39.339Z,11.60
2018-09-05T10:27:39.756Z,11.10
2018-09-05T10:28:39.385Z,10.90
2018-09-05T10:29:39.518Z,10.60
2018-09-05T10:31:42.260Z,10.80
2018-09-05T10:32:39.361Z,10.20
2018-09-05T10:33:39.380Z,9.70
2018-09-05T10:34:39.383Z,9.40
2018-09-05T10:35:39.423Z,8.70
2018-09-05T10:36:39.422Z,8.30
2018-09-05T10:37:39.853Z,8.40
2018-09-05T10:38:39.586Z,8.80
2018-09-05T10:39:39.566Z,8.70
2018-09-05T10:40:39.494Z,8.90
2018-09-05T10:41:39.525Z,10.10
2018-09-05T10:42:40.529Z,8.40
2018-09-05T10:43:39.612Z,8.00
2018-09-05T10:44:39.585Z,9.90
2018-09-05T10:45:39.650Z,9.50
2018-09-05T10:46:42.463Z,9.90
2018-09-05T10:47:39.725Z,9.10
2018-09-05T10:48:40.025Z,8.60
2018-09-05T10:49:39.806Z,7.70
2018-09-05T10:50:39.774Z,9.20
2018-09-05T10:53:27.913Z,9.00
2018-09-05T10:54:12.838Z,8.40
2018-09-05T10:55:12.844Z,8.60
2018-09-05T10:56:12.878Z,9.10
2018-09-05T10:57:12.854Z,8.80
2018-09-05T10:58:13.882Z,8.70
2018-09-05T10:59:12.974Z,8.20
2018-09-05T11:00:13.006Z,8.70
2018-09-05T11:01:13.818Z,8.70
2018-09-05T11:02:13.016Z,9.40
2018-09-05T11:03:13.810Z,8.60
2018-09-05T11:04:13.065Z,9.40
2018-09-05T11:05:13.096Z,9.50
2018-09-05T11:06:13.059Z,9.10
2018-09-05T11:07:13.127Z,9.30
2018-09-05T11:08:13.341Z,9.10
2018-09-05T11:09:13.144Z,9.00
2018-09-05T11:10:13.157Z,8.00
2018-09-05T11:11:13.310Z,8.80
2018-09-05T11:12:13.226Z,8.50
2018-09-05T11:13:13.212Z,9.80
2018-09-05T11:14:13.264Z,9.50
2018-09-05T11:15:13.282Z,9.50
2018-09-05T11:16:13.219Z,8.90
2018-09-05T11:17:13.297Z,9.10
2018-09-05T11:18:13.227Z,9.10
2018-09-05T11:19:13.265Z,9.50
2018-09-05T11:20:13.317Z,9.60
2018-09-05T11:21:13.501Z,9.70
2018-09-05T11:22:13.381Z,9.80
2018-09-05T11:23:14.315Z,10.10
2018-09-05T11:24:13.361Z,9.40
2018-09-05T11:25:13.819Z,39.70
2018-09-05T11:26:13.393Z,9.10
2018-09-05T11:27:13.389Z,9.40
2018-09-05T11:28:13.610Z,10.10
2018-09-05T11:29:13.558Z,10.00
2018-09-05T11:30:13.537Z,9.80
2018-09-05T11:31:13.520Z,8.90
2018-09-05T11:32:14.878Z,9.50
2018-09-05T11:33:13.776Z,9.50
2018-09-05T11:34:13.629Z,9.10
2018-09-05T11:35:13.552Z,10.00
2018-09-05T11:36:13.580Z,10.00
2018-09-05T11:37:13.540Z,10.30
2018-09-05T11:38:13.510Z,9.90
2018-09-05T11:39:13.541Z,10.30
2018-09-05T11:40:13.616Z,9.50
2018-09-05T11:41:13.572Z,10.10
2018-09-05T11:42:13.572Z,9.80
2018-09-05T11:43:13.678Z,9.20
2018-09-05T11:44:13.608Z,9.80
2018-09-05T11:45:13.642Z,12.80
2018-09-05T11:46:13.676Z,10.40
2018-09-05T11:47:13.733Z,9.20
2018-09-05T11:48:13.753Z,9.00
2018-09-05T11:49:14.339Z,9.10
2018-09-05T11:50:13.799Z,9.50
2018-09-05T11:51:13.789Z,9.50
2018-09-05T11:52:13.817Z,9.50
2018-09-05T11:53:13.898Z,9.40
2018-09-05T11:54:14.550Z,8.60
2018-09-05T11:55:13.861Z,9.00
2018-09-05T11:56:13.801Z,8.30
2018-09-05T11:57:13.832Z,8.80
2018-09-05T11:58:13.765Z,8.60
2018-09-05T11:59:13.770Z,9.00
2018-09-05T12:00:13.887Z,8.60
2018-09-05T12:01:13.823Z,8.40
2018-09-05T12:02:13.840Z,9.30
2018-09-05T12:03:13.836Z,10.00
2018-09-05T12:04:13.794Z,9.40
2018-09-05T12:05:14.016Z,8.40
2018-09-05T12:06:13.995Z,8.30
2018-09-05T12:07:14.612Z,8.40
2018-09-05T12:08:13.848Z,8.80
2018-09-05T12:09:13.892Z,9.10
2018-09-05T12:10:13.905Z,9.30
2018-09-05T12:11:14.061Z,8.40
2018-09-05T12:12:13.961Z,9.90
2018-09-05T12:13:14.053Z,9.40
2018-09-05T12:14:13.946Z,8.60
2018-09-05T12:15:14.895Z,8.80
2018-09-05T12:16:13.950Z,8.40
2018-09-05T12:17:35.038Z,8.50
2018-09-05T12:18:13.962Z,8.00
2018-09-05T12:19:13.971Z,8.40
2018-09-05T12:20:14.116Z,7.60
2018-09-05T12:21:13.960Z,7.90
2018-09-05T12:22:14.001Z,7.70
2018-09-05T12:23:13.973Z,7.80
2018-09-05T12:24:13.997Z,8.10
2018-09-05T12:25:15.839Z,8.10
2018-09-05T12:26:15.651Z,8.20
2018-09-05T12:27:14.327Z,8.60
2018-09-05T12:28:14.055Z,8.00
2018-09-05T12:29:14.056Z,7.40
2018-09-05T12:30:14.012Z,8.70
2018-09-05T12:31:14.042Z,7.90
2018-09-05T12:32:14.039Z,8.00
2018-09-05T12:33:14.244Z,7.10
2018-09-05T12:34:14.179Z,7.30
2018-09-05T12:35:18.716Z,7.50
2018-09-05T12:36:15.488Z,7.10
2018-09-05T12:37:14.388Z,7.00
2018-09-05T12:38:15.227Z,7.00
2018-09-05T12:39:35.326Z,7.00
2018-09-05T12:40:14.204Z,6.30
2018-09-05T12:41:14.215Z,6.70
2018-09-05T12:42:14.197Z,6.70
2018-09-05T12:43:14.139Z,6.70
2018-09-05T12:44:14.181Z,6.90
2018-09-05T12:45:14.152Z,6.70
2018-09-05T12:46:15.596Z,7.00
2018-09-05T12:47:14.178Z,7.10
2018-09-05T12:48:14.211Z,7.30
2018-09-05T12:49:14.220Z,7.80
2018-09-05T12:50:14.192Z,7.70
2018-09-05T12:51:14.324Z,7.10
2018-09-05T12:52:14.275Z,7.30
2018-09-05T12:53:14.214Z,7.20
2018-09-05T12:54:14.258Z,7.80
2018-09-05T12:55:14.221Z,7.40
2018-09-05T12:56:14.220Z,7.40
2018-09-05T12:57:14.240Z,7.10
2018-09-05T12:58:14.270Z,7.60
2018-09-05T12:59:14.325Z,6.80
2018-09-05T13:00:14.259Z,6.60
2018-09-05T13:01:14.281Z,7.10
2018-09-05T13:02:14.308Z,7.20
2018-09-05T13:03:14.347Z,7.20
2018-09-05T13:04:14.282Z,7.00
2018-09-05T13:05:14.394Z,6.80
2018-09-05T13:06:14.305Z,7.40
2018-09-05T13:07:14.319Z,7.40
2018-09-05T13:08:14.328Z,7.30
2018-09-05T13:09:14.396Z,7.70
2018-09-05T13:10:14.369Z,8.10